Time;durP1;ratioP1;P1;durP2;ratioP2;P2;SDS_P1;SDS_P2;PMS_P1;PMS_P2;Temp;Humidity;BMP_temperature;BMP_pressure;BME280_temperature;BME280_humidity;BME280_pressure;Samples;Min_cycle;Max_cycle;Signal;HPM_P1;HPM_P2
2022/02/18 00:01:20;;;;;;;2.75;0.77;;;;;;;9.74;48.49;99444.87;4493009;31;33797;-88
2022/02/18 00:03:48;;;;;;;2.90;0.65;;;;;;;9.58;49.15;99450.88;4484709;31;33762;-87
2022/02/18 00:06:16;;;;;;;1.83;0.50;;;;;;;9.72;48.90;99459.03;4477451;31;33961;-88
2022/02/18 00:08:45;;;;;;;5.45;0.80;;;;;;;9.65;49.26;99462.88;4479180;31;33611;-88
2022/02/18 00:11:13;;;;;;;3.60;0.70;;;;;;;9.98;47.76;99455.22;4491593;31;33708;-88
2022/02/18 00:13:41;;;;;;;6.65;0.80;;;;;;;9.60;48.37;99460.47;4480908;31;34440;-88
2022/02/18 00:16:09;;;;;;;2.78;0.50;;;;;;;9.94;47.72;99459.75;4477964;31;32953;-88
2022/02/18 00:18:37;;;;;;;1.95;0.80;;;;;;;9.99;47.75;99455.13;4477973;31;33782;-86
2022/02/18 00:21:04;;;;;;;2.15;0.60;;;;;;;9.90;47.78;99452.06;4472766;31;33856;-86
2022/02/18 00:23:32;;;;;;;2.10;0.40;;;;;;;9.84;47.70;99469.03;4479076;31;34444;-87
2022/02/18 00:26:00;;;;;;;3.78;1.25;;;;;;;9.87;47.31;99487.31;4493887;31;33200;-86
2022/02/18 00:28:29;;;;;;;2.53;0.68;;;;;;;9.53;48.09;99489.78;4490974;31;34467;-86
2022/02/18 00:30:57;;;;;;;4.05;0.88;;;;;;;9.40;48.29;99507.91;4495324;31;34629;-86
2022/02/18 00:33:26;;;;;;;1.58;0.88;;;;;;;9.80;47.18;99511.44;4490410;31;33916;-86
2022/02/18 00:35:54;;;;;;;3.70;1.08;;;;;;;9.51;47.33;99507.47;4480755;31;32280;-86
2022/02/18 00:38:23;;;;;;;3.90;0.70;;;;;;;9.63;47.40;99493.72;4479690;31;34488;-87
2022/02/18 00:40:51;;;;;;;4.30;0.43;;;;;;;9.84;46.58;99479.56;4479951;31;34226;-86
2022/02/18 00:43:19;;;;;;;2.08;0.60;;;;;;;9.85;46.40;99497.09;4473060;31;33307;-86
2022/02/18 00:45:48;;;;;;;2.70;0.65;;;;;;;9.98;46.48;99507.97;4479483;31;33297;-86
2022/02/18 00:48:16;;;;;;;3.28;0.85;;;;;;;9.86;46.21;99509.34;4471227;31;32024;-86
2022/02/18 00:50:45;;;;;;;2.30;0.80;;;;;;;10.08;45.64;99503.97;4493604;31;33314;-86
2022/02/18 00:53:13;;;;;;;4.10;0.98;;;;;;;9.93;46.27;99508.16;4479805;31;33886;-90
2022/02/18 00:55:43;;;;;;;3.03;0.90;;;;;;;10.09;45.51;99510.94;4465668;31;32307;-90
2022/02/18 00:58:11;;;;;;;3.83;0.47;;;;;;;9.63;46.55;99501.62;4472569;31;32516;-89
2022/02/18 01:00:40;;;;;;;3.35;0.80;;;;;;;9.86;46.31;99496.16;4455900;31;32655;-89
2022/02/18 01:03:08;;;;;;;5.47;0.93;;;;;;;10.03;45.79;99503.31;4472404;31;33327;-90
2022/02/18 01:05:37;;;;;;;6.20;0.90;;;;;;;9.99;46.02;99505.25;4473146;31;32400;-88
2022/02/18 01:08:05;;;;;;;6.65;0.73;;;;;;;9.71;46.79;99488.97;4465301;31;33587;-87
2022/02/18 01:10:34;;;;;;;2.15;0.57;;;;;;;10.08;45.82;99485.50;4461518;31;33165;-87
2022/02/18 01:13:06;;;;;;;3.87;1.10;;;;;;;10.09;45.88;99494.25;4491036;31;34215;-87
2022/02/18 01:15:34;;;;;;;5.35;0.95;;;;;;;9.77;46.75;99487.81;4467771;31;33026;-87
2022/02/18 01:18:04;;;;;;;5.25;1.08;;;;;;;9.94;46.52;99486.12;4467247;31;32953;-87
2022/02/18 01:20:31;;;;;;;2.67;0.47;;;;;;;10.06;45.87;99476.78;4492052;31;34799;-87
2022/02/18 01:22:59;;;;;;;2.30;0.40;;;;;;;9.88;46.50;99483.78;4479211;31;33547;-89
2022/02/18 01:25:27;;;;;;;9.32;1.02;;;;;;;9.94;46.47;99467.66;4479246;31;32961;-89
2022/02/18 01:27:56;;;;;;;3.45;1.15;;;;;;;9.72;47.08;99480.13;4479632;31;33277;-88
2022/02/18 01:30:25;;;;;;;5.50;1.00;;;;;;;9.62;47.63;99479.69;4471984;31;34190;-89
2022/02/18 01:32:53;;;;;;;1.85;0.60;;;;;;;9.66;47.40;99485.69;4473424;31;32671;-89
2022/02/18 01:35:21;;;;;;;2.75;0.68;;;;;;;10.01;46.46;99479.62;4464538;31;33415;-90
2022/02/18 01:37:53;;;;;;;8.00;0.80;;;;;;;10.05;45.96;99480.34;4481184;31;33673;-91
2022/02/18 01:40:22;;;;;;;5.35;1.00;;;;;;;9.96;46.55;99475.50;4472325;31;34455;-89
2022/02/18 01:42:50;;;;;;;4.85;0.50;;;;;;;9.81;47.10;99465.66;4474364;31;32983;-87
2022/02/18 01:45:18;;;;;;;9.93;0.80;;;;;;;9.83;47.04;99459.41;4491679;31;33827;-88
2022/02/18 01:47:46;;;;;;;1.65;0.50;;;;;;;10.12;46.33;99452.78;4479796;31;33677;-88
2022/02/18 01:50:14;;;;;;;3.67;0.90;;;;;;;10.18;46.05;99448.97;4481290;31;34556;-88
2022/02/18 01:52:49;;;;;;;3.62;0.62;;;;;;;10.20;46.06;99439.19;4478568;31;33749;-88
2022/02/18 01:55:18;;;;;;;8.00;1.10;;;;;;;9.75;47.22;99428.13;4465221;31;33134;-87
2022/02/18 01:57:55;;;;;;;3.05;0.55;;;;;;;9.65;47.41;99418.91;4482424;31;33960;-88
2022/02/18 02:00:26;;;;;;;2.65;0.65;;;;;;;9.58;47.76;99408.72;4474681;31;32910;-87
2022/02/18 02:02:54;;;;;;;2.30;0.77;;;;;;;9.55;47.86;99403.59;4474116;31;33832;-87
2022/02/18 02:05:23;;;;;;;1.73;0.60;;;;;;;9.45;47.96;99393.47;4460549;31;32193;-87
2022/02/18 02:08:02;;;;;;;3.50;1.02;;;;;;;9.31;48.39;99390.63;4480620;31;32698;-88
2022/02/18 02:10:31;;;;;;;5.70;1.12;;;;;;;9.31;48.61;99382.72;4480580;31;34744;-88
2022/02/18 02:13:01;;;;;;;4.57;0.45;;;;;;;9.32;48.33;99381.78;4474477;31;32132;-87
2022/02/18 02:15:29;;;;;;;3.35;0.70;;;;;;;9.33;48.38;99380.00;4475025;31;32408;-87
2022/02/18 02:18:01;;;;;;;4.35;0.77;;;;;;;9.31;48.35;99380.06;4486139;31;32712;-87
2022/02/18 02:20:29;;;;;;;7.07;0.70;;;;;;;9.28;48.45;99395.16;4470987;31;32879;-88
2022/02/18 02:22:58;;;;;;;4.72;0.60;;;;;;;9.37;48.05;99390.34;4473770;31;33570;-87
2022/02/18 02:25:46;;;;;;;1.58;0.40;;;;;;;9.04;49.05;99397.94;4491624;31;33112;-88
2022/02/18 02:28:15;;;;;;;6.47;0.88;;;;;;;9.06;49.00;99395.25;4492554;31;34249;-86
2022/02/18 02:30:44;;;;;;;4.80;0.80;;;;;;;9.18;48.36;99424.53;4490323;31;34040;-87
2022/02/18 02:33:12;;;;;;;2.60;0.60;;;;;;;9.31;47.61;99435.41;4480150;31;33401;-87
2022/02/18 02:35:41;;;;;;;1.27;0.47;;;;;;;9.66;46.74;99433.81;4486797;31;33348;-87
2022/02/18 02:38:09;;;;;;;7.45;0.50;;;;;;;9.78;46.17;99435.03;4469118;31;32662;-88
2022/02/18 02:40:37;;;;;;;1.33;0.37;;;;;;;9.58;47.20;99440.34;4493851;31;34301;-88
2022/02/18 02:43:06;;;;;;;3.60;0.80;;;;;;;9.25;47.60;99472.53;4474937;31;32194;-87
2022/02/18 02:45:33;;;;;;;3.87;0.60;;;;;;;9.64;46.25;99472.56;4481793;31;32091;-86
2022/02/18 02:48:01;;;;;;;3.12;0.60;;;;;;;9.66;46.49;99473.34;4454988;31;32718;-86
2022/02/18 02:50:30;;;;;;;5.37;0.60;;;;;;;9.33;47.71;99488.88;4473711;31;33935;-87
2022/02/18 02:52:58;;;;;;;3.25;0.62;;;;;;;9.60;46.50;99499.13;4479432;31;35162;-86
2022/02/18 02:55:26;;;;;;;4.43;0.68;;;;;;;9.34;47.24;99509.03;4480545;31;33177;-86
2022/02/18 02:57:54;;;;;;;4.90;0.80;;;;;;;9.69;45.98;99506.63;4478632;31;33902;-86
2022/02/18 03:00:21;;;;;;;2.10;0.80;;;;;;;9.56;45.67;99516.88;4473699;31;33800;-87
2022/02/18 03:02:50;;;;;;;2.47;0.47;;;;;;;9.71;45.27;99517.97;4481706;31;34423;-88
2022/02/18 03:05:18;;;;;;;1.35;0.82;;;;;;;9.74;45.58;99525.75;4481530;31;34307;-88
2022/02/18 03:07:47;;;;;;;1.92;0.50;;;;;;;9.85;44.99;99539.28;4480793;31;33495;-87
2022/02/18 03:10:15;;;;;;;7.40;0.85;;;;;;;9.55;45.57;99552.06;4479681;31;34260;-88
2022/02/18 03:12:44;;;;;;;1.95;0.88;;;;;;;9.43;46.11;99555.22;4481889;31;33067;-87
2022/02/18 03:15:11;;;;;;;2.87;0.70;;;;;;;10.24;43.95;99548.97;4462058;31;33459;-88
2022/02/18 03:17:40;;;;;;;5.62;0.57;;;;;;;10.09;44.38;99549.66;4473149;31;32911;-89
2022/02/18 03:20:12;;;;;;;;;;;;;;;9.82;44.89;99557.03;4492098;31;33535;-89
2022/02/18 03:22:40;;;;;;;3.70;0.50;;;;;;;9.87;44.43;99573.50;4470824;31;32955;-88
2022/02/18 03:25:08;;;;;;;1.98;0.37;;;;;;;9.49;45.02;99579.53;4473278;31;32444;-89
2022/02/18 03:27:38;;;;;;;1.17;0.50;;;;;;;9.77;44.61;99586.22;4486042;31;33733;-88
2022/02/18 03:30:07;;;;;;;3.80;0.70;;;;;;;9.84;44.30;99576.28;4481045;31;33825;-89
2022/02/18 03:32:35;;;;;;;0.88;0.47;;;;;;;9.93;43.89;99574.09;4474171;31;32392;-89
2022/02/18 03:35:36;;;;;;;3.25;0.62;;;;;;;9.77;44.66;99562.50;4479438;31;32586;-90
2022/02/18 03:38:05;;;;;;;3.80;0.60;;;;;;;9.93;44.09;99568.81;4479547;31;33883;-90
2022/02/18 03:40:35;;;;;;;6.45;0.70;;;;;;;9.32;45.62;99574.13;4474680;31;32770;-89
2022/02/18 03:43:05;;;;;;;3.92;0.85;;;;;;;9.56;45.40;99585.41;4473642;31;33692;-89
2022/02/18 03:45:33;;;;;;;3.42;0.45;;;;;;;9.43;45.46;99578.94;4472751;31;32739;-90
2022/02/18 03:48:01;;;;;;;2.00;0.80;;;;;;;9.73;45.10;99593.44;4471033;31;33790;-89
2022/02/18 03:50:37;;;;;;;2.33;0.60;;;;;;;9.59;45.27;99589.66;4467655;31;33012;-89
2022/02/18 03:53:08;;;;;;;2.70;0.40;;;;;;;9.64;45.17;99587.72;4460294;31;32855;-89
2022/02/18 03:56:02;;;;;;;4.87;0.60;;;;;;;9.65;45.26;99595.56;4476762;31;33139;-87
2022/02/18 03:58:32;;;;;;;1.15;0.60;;;;;;;9.28;46.25;99611.19;4479260;31;35049;-86
2022/02/18 04:00:59;;;;;;;3.60;0.98;;;;;;;9.60;45.37;99613.34;4467852;31;32997;-86
2022/02/18 04:03:28;;;;;;;3.95;0.57;;;;;;;9.58;45.43;99611.69;4478688;31;34527;-86
2022/02/18 04:05:59;;;;;;;1.45;0.50;;;;;;;9.51;45.36;99620.78;4465969;31;32999;-86
2022/02/18 04:08:28;;;;;;;2.75;0.60;;;;;;;9.56;45.27;99629.34;4479773;31;33249;-87
2022/02/18 04:10:55;;;;;;;4.80;0.30;;;;;;;9.53;45.30;99626.84;4492559;31;34082;-87
2022/02/18 04:13:23;;;;;;;1.05;0.55;;;;;;;9.65;44.77;99628.97;4466686;31;32646;-87
2022/02/18 04:15:53;;;;;;;4.75;0.70;;;;;;;9.69;44.25;99633.19;4472671;31;32095;-87
2022/02/18 04:18:22;;;;;;;5.35;0.60;;;;;;;9.36;45.18;99646.84;4473824;31;34043;-87
2022/02/18 04:20:50;;;;;;;2.30;0.40;;;;;;;9.64;44.47;99645.72;4478593;31;32886;-87
2022/02/18 04:23:34;;;;;;;4.65;0.82;;;;;;;9.58;44.64;99653.84;4493916;31;33424;-87
2022/02/18 04:26:03;;;;;;;3.17;0.90;;;;;;;9.43;45.02;99650.94;4479476;31;33797;-86
2022/02/18 04:28:32;;;;;;;6.85;0.80;;;;;;;9.41;45.13;99654.56;4479900;31;32425;-86
2022/02/18 04:31:00;;;;;;;2.40;0.52;;;;;;;9.65;44.29;99652.69;4494490;31;33748;-87
2022/02/18 04:33:28;;;;;;;7.40;0.60;;;;;;;9.33;44.74;99654.88;4486346;31;33839;-86
2022/02/18 04:35:55;;;;;;;4.78;0.70;;;;;;;9.44;44.84;99654.44;4480174;31;34225;-86
2022/02/18 04:38:23;;;;;;;5.22;0.80;;;;;;;9.56;44.33;99663.63;4476609;31;32957;-87
2022/02/18 04:40:50;;;;;;;5.25;0.37;;;;;;;9.07;45.07;99670.84;4479346;31;34738;-87
2022/02/18 04:43:18;;;;;;;2.05;0.62;;;;;;;9.32;45.28;99679.53;4465736;31;33569;-87
2022/02/18 04:45:46;;;;;;;2.30;0.37;;;;;;;9.55;43.67;99670.66;4485713;31;31520;-88
2022/02/18 04:48:15;;;;;;;2.00;0.50;;;;;;;9.47;44.25;99668.34;4471822;31;32705;-88
2022/02/18 04:50:42;;;;;;;4.55;0.88;;;;;;;9.64;43.98;99669.44;4468677;31;33814;-88
2022/02/18 04:53:30;;;;;;;3.95;1.00;;;;;;;9.69;44.06;99672.75;4479491;31;33512;-88
2022/02/18 04:55:58;;;;;;;8.15;0.77;;;;;;;9.70;44.06;99671.81;4493879;31;34180;-87
2022/02/18 04:58:25;;;;;;;2.42;0.85;;;;;;;9.55;44.39;99668.03;4477180;31;32686;-86
2022/02/18 05:00:53;;;;;;;3.17;0.77;;;;;;;9.34;45.04;99664.50;4494575;31;33680;-87
2022/02/18 05:03:21;;;;;;;5.93;0.68;;;;;;;9.65;44.08;99657.97;4466679;31;32776;-87
2022/02/18 05:05:49;;;;;;;4.25;2.03;;;;;;;9.58;44.55;99657.34;4465105;31;32080;-88
2022/02/18 05:08:17;;;;;;;4.53;1.05;;;;;;;9.78;44.36;99653.91;4474745;31;33338;-87
2022/02/18 05:10:47;;;;;;;6.55;0.93;;;;;;;9.69;44.57;99656.91;4491570;31;33689;-86
2022/02/18 05:13:15;;;;;;;3.75;0.60;;;;;;;9.36;46.08;99667.94;4477062;31;34059;-87
2022/02/18 05:15:43;;;;;;;3.83;0.80;;;;;;;9.53;46.06;99664.59;4480510;31;34217;-87
2022/02/18 05:18:10;;;;;;;2.87;0.73;;;;;;;9.69;45.86;99659.56;4461042;31;33050;-86
2022/02/18 05:20:38;;;;;;;3.28;0.88;;;;;;;9.54;46.78;99662.81;4466047;31;33324;-86
2022/02/18 05:23:07;;;;;;;4.93;1.20;;;;;;;9.61;47.03;99669.56;4479432;31;34798;-86
2022/02/18 05:25:34;;;;;;;2.22;0.65;;;;;;;9.41;48.25;99691.47;4475405;31;33747;-85
2022/02/18 05:28:03;;;;;;;2.40;0.70;;;;;;;9.68;47.76;99678.91;4479901;31;32543;-86
2022/02/18 05:30:32;;;;;;;4.85;0.90;;;;;;;9.58;48.28;99686.34;4475918;31;33644;-87
2022/02/18 05:32:59;;;;;;;4.43;0.82;;;;;;;9.47;48.54;99676.25;4467002;31;33794;-87
2022/02/18 05:35:27;;;;;;;4.70;0.80;;;;;;;9.79;47.96;99681.97;4466915;31;33053;-87
2022/02/18 05:37:55;;;;;;;5.28;0.80;;;;;;;9.64;48.40;99680.84;4464205;31;32782;-88
2022/02/18 05:40:22;;;;;;;6.47;1.40;;;;;;;9.43;49.17;99669.38;4468314;31;34129;-88
2022/02/18 05:42:50;;;;;;;9.00;1.55;;;;;;;9.33;49.44;99678.59;4473710;31;33508;-88
2022/02/18 05:45:22;;;;;;;3.25;1.05;;;;;;;9.22;49.90;99686.09;4480582;31;32994;-87
2022/02/18 05:47:53;;;;;;;3.10;1.23;;;;;;;9.13;50.10;99673.28;4475098;31;32924;-87
2022/02/18 05:50:21;;;;;;;4.78;0.93;;;;;;;9.35;49.58;99674.13;4467563;31;34044;-88
2022/02/18 05:52:49;;;;;;;4.30;1.37;;;;;;;9.42;49.38;99688.75;4469980;31;33406;-89
2022/02/18 05:55:17;;;;;;;8.13;1.17;;;;;;;9.32;49.71;99687.41;4461620;31;32886;-88
2022/02/18 05:57:45;;;;;;;1.85;0.98;;;;;;;9.21;50.05;99694.91;4469781;31;32743;-89
2022/02/18 06:00:13;;;;;;;4.85;1.10;;;;;;;9.34;49.73;99692.62;4474781;31;33758;-88
2022/02/18 06:02:42;;;;;;;4.57;0.88;;;;;;;9.31;50.15;99700.66;4461104;31;33511;-88
2022/02/18 06:05:10;;;;;;;5.45;1.65;;;;;;;9.28;50.49;99706.06;4467071;31;32265;-88
2022/02/18 06:07:41;;;;;;;10.57;1.37;;;;;;;9.33;50.77;99715.47;4464852;31;31582;-88
2022/02/18 06:10:27;;;;;;;3.60;1.15;;;;;;;9.27;50.95;99707.81;4460694;31;33963;-88
2022/02/18 06:12:55;;;;;;;6.15;1.40;;;;;;;9.41;50.80;99723.94;4459277;31;33321;-88
2022/02/18 06:15:22;;;;;;;9.60;1.33;;;;;;;9.44;50.58;99721.16;4465318;31;33014;-88
2022/02/18 06:17:50;;;;;;;3.97;0.98;;;;;;;9.58;50.62;99725.88;4461617;31;33860;-89
2022/02/18 06:20:18;;;;;;;6.53;0.98;;;;;;;9.43;51.23;99735.28;4464772;31;33018;-87
2022/02/18 06:22:45;;;;;;;2.90;1.05;;;;;;;9.20;51.73;99737.94;4481021;31;34214;-86
2022/02/18 06:25:13;;;;;;;6.10;0.88;;;;;;;9.13;51.28;99734.72;4488876;31;33600;-88
2022/02/18 06:27:42;;;;;;;4.22;0.80;;;;;;;9.53;50.07;99732.28;4485979;31;33884;-88
2022/02/18 06:30:10;;;;;;;5.90;0.90;;;;;;;9.29;49.68;99729.69;4469576;31;33024;-87
2022/02/18 06:32:38;;;;;;;5.25;0.95;;;;;;;9.14;50.52;99738.19;4477942;31;33383;-88
2022/02/18 06:35:06;;;;;;;2.05;1.00;;;;;;;9.20;49.66;99736.19;4467428;31;32554;-87
2022/02/18 06:37:34;;;;;;;1.85;1.00;;;;;;;9.56;49.02;99733.00;4464726;31;33766;-87
2022/02/18 06:40:02;;;;;;;4.15;0.73;;;;;;;9.41;49.24;99739.75;4478275;31;34662;-87
2022/02/18 06:42:30;;;;;;;3.40;0.45;;;;;;;9.45;47.82;99748.41;4464873;31;33383;-87
2022/02/18 06:44:58;;;;;;;2.95;0.50;;;;;;;9.37;47.90;99738.16;4486290;31;32400;-87
2022/02/18 06:47:25;;;;;;;3.60;0.85;;;;;;;9.59;47.77;99737.28;4487416;31;33573;-87
2022/02/18 06:49:53;;;;;;;5.12;1.20;;;;;;;9.78;47.19;99732.09;4479272;31;32962;-88
2022/02/18 06:52:21;;;;;;;8.55;0.90;;;;;;;9.64;46.88;99741.47;4465000;31;34298;-88
2022/02/18 06:54:49;;;;;;;4.68;1.00;;;;;;;10.01;46.28;99747.84;4480674;31;32547;-87
2022/02/18 06:57:17;;;;;;;4.93;0.75;;;;;;;10.13;45.69;99743.84;4467504;31;32695;-88
2022/02/18 06:59:45;;;;;;;3.70;0.82;;;;;;;10.06;45.54;99742.37;4465951;31;33419;-89
2022/02/18 07:02:12;;;;;;;5.40;1.80;;;;;;;9.95;45.76;99741.03;4469361;31;33904;-88
2022/02/18 07:04:40;;;;;;;4.10;0.80;;;;;;;10.25;45.33;99733.66;4479091;31;32731;-89
2022/02/18 07:07:08;;;;;;;5.25;0.90;;;;;;;10.50;44.18;99743.97;4490260;31;32674;-89
2022/02/18 07:09:36;;;;;;;5.43;1.00;;;;;;;10.40;45.28;99758.50;4464032;31;33304;-88
2022/02/18 07:12:04;;;;;;;8.18;1.00;;;;;;;10.64;43.66;99771.56;4479061;31;33897;-88
2022/02/18 07:14:31;;;;;;;4.55;0.73;;;;;;;10.63;44.83;99775.09;4470481;31;31914;-88
2022/02/18 07:17:04;;;;;;;4.50;0.88;;;;;;;10.36;44.85;99787.75;4481832;31;33406;-89
2022/02/18 07:19:32;;;;;;;5.07;1.50;;;;;;;10.47;44.42;99790.78;4477203;31;33199;-88
2022/02/18 07:22:00;;;;;;;8.07;1.30;;;;;;;10.82;42.75;99786.56;4470776;31;32955;-90
2022/02/18 07:24:29;;;;;;;7.22;1.27;;;;;;;10.43;43.78;99787.41;4478643;31;32197;-89
2022/02/18 07:26:57;;;;;;;5.57;1.15;;;;;;;10.27;44.43;99790.78;4467420;31;34491;-89
2022/02/18 07:29:24;;;;;;;5.75;1.02;;;;;;;10.64;44.29;99795.31;4487839;31;34836;-88
2022/02/18 07:31:56;;;;;;;6.82;0.90;;;;;;;10.40;44.33;99792.84;4475956;31;32666;-89
2022/02/18 07:34:24;;;;;;;6.20;0.70;;;;;;;10.58;44.23;99795.56;4478564;31;33390;-88
2022/02/18 07:36:51;;;;;;;3.70;0.68;;;;;;;10.85;43.18;99775.88;4476705;31;33753;-88
2022/02/18 07:39:19;;;;;;;5.07;1.45;;;;;;;10.93;43.03;99778.19;4476251;31;33252;-88
2022/02/18 07:41:46;;;;;;;6.90;1.10;;;;;;;10.68;44.85;99781.94;4475748;31;32389;-87
2022/02/18 07:44:14;;;;;;;2.35;0.80;;;;;;;10.99;42.92;99772.59;4467113;31;32087;-87
2022/02/18 07:46:42;;;;;;;8.90;1.00;;;;;;;11.12;43.32;99767.63;4480438;31;33754;-88
2022/02/18 07:49:11;;;;;;;4.12;1.37;;;;;;;11.14;42.83;99776.31;4479404;31;32898;-87
2022/02/18 07:51:38;;;;;;;5.25;1.37;;;;;;;11.13;42.63;99774.63;4476772;32;33749;-87
2022/02/18 07:54:07;;;;;;;2.72;0.98;;;;;;;11.23;42.14;99770.63;4474508;31;33170;-87
2022/02/18 07:56:35;;;;;;;4.00;0.90;;;;;;;11.00;43.14;99769.88;4483588;31;33134;-88
2022/02/18 07:59:03;;;;;;;9.13;1.27;;;;;;;11.25;42.68;99766.09;4485790;31;33211;-88
2022/02/18 08:01:30;;;;;;;6.53;0.75;;;;;;;11.25;43.33;99768.75;4478088;31;33828;-88
2022/02/18 08:03:59;;;;;;;4.10;0.85;;;;;;;11.23;43.14;99770.63;4465307;31;33709;-88
2022/02/18 08:06:27;;;;;;;4.32;1.08;;;;;;;11.41;42.70;99772.37;4465837;31;33595;-87
2022/02/18 08:08:54;;;;;;;2.90;0.60;;;;;;;11.66;42.88;99777.34;4474003;31;33317;-87
2022/02/18 08:11:23;;;;;;;3.00;0.80;;;;;;;11.36;42.23;99770.91;4481391;31;32446;-87
2022/02/18 08:13:50;;;;;;;3.62;0.90;;;;;;;11.42;42.41;99782.03;4470680;31;32490;-87
2022/02/18 08:16:18;;;;;;;8.32;1.20;;;;;;;11.20;44.05;99792.78;4486411;31;32876;-87
2022/02/18 08:18:46;;;;;;;4.15;0.80;;;;;;;11.15;43.72;99792.09;4477296;31;33882;-87
2022/02/18 08:21:14;;;;;;;5.22;0.80;;;;;;;11.22;42.83;99795.34;4477594;31;33887;-87
2022/02/18 08:23:42;;;;;;;7.28;0.70;;;;;;;11.23;43.17;99783.81;4482283;31;32588;-87
2022/02/18 08:26:10;;;;;;;5.57;1.92;;;;;;;11.29;42.75;99791.47;4493390;31;34629;-88
2022/02/18 08:28:38;;;;;;;5.15;1.20;;;;;;;11.42;42.45;99792.59;4473625;31;33395;-87
2022/02/18 08:31:08;;;;;;;7.10;1.42;;;;;;;11.61;42.97;99792.59;4468361;31;32594;-87
2022/02/18 08:33:37;;;;;;;1.52;0.60;;;;;;;11.49;43.10;99791.41;4482123;31;32358;-87
2022/02/18 08:36:06;;;;;;;3.37;0.47;;;;;;;11.46;42.88;99799.47;4478517;32;33677;-87
2022/02/18 08:38:34;;;;;;;3.28;0.68;;;;;;;11.35;43.29;99815.00;4465694;31;34187;-87
2022/02/18 08:41:02;;;;;;;3.60;1.08;;;;;;;10.89;44.59;99816.22;4481017;31;34582;-88
2022/02/18 08:43:30;;;;;;;4.07;0.80;;;;;;;11.17;44.57;99823.75;4495138;31;33080;-87
2022/02/18 08:45:57;;;;;;;3.20;0.75;;;;;;;11.58;43.17;99824.47;4494820;31;34692;-88
2022/02/18 08:48:25;;;;;;;5.07;0.35;;;;;;;11.17;43.54;99836.97;4480968;31;34715;-88
2022/02/18 08:50:55;;;;;;;2.92;1.08;;;;;;;11.12;45.00;99842.47;4500560;31;33155;-88
2022/02/18 08:53:23;;;;;;;5.12;1.00;;;;;;;11.46;43.52;99846.19;4479069;31;33336;-87
2022/02/18 08:55:51;;;;;;;6.78;0.80;;;;;;;11.30;44.33;99846.06;4473116;31;33222;-87
2022/02/18 08:58:19;;;;;;;7.72;1.08;;;;;;;11.68;43.36;99849.56;4473236;31;33248;-88
2022/02/18 09:00:48;;;;;;;5.82;0.80;;;;;;;11.77;42.63;99851.78;4489713;31;34104;-87
2022/02/18 09:03:16;;;;;;;2.28;0.80;;;;;;;11.45;43.81;99860.38;4468921;31;33314;-87
2022/02/18 09:05:43;;;;;;;8.52;1.40;;;;;;;11.74;43.25;99851.06;4482289;31;33177;-88
2022/02/18 09:08:11;;;;;;;10.07;1.92;;;;;;;11.28;43.35;99863.75;4493995;31;33636;-87
2022/02/18 09:10:41;;;;;;;6.12;1.08;;;;;;;11.25;43.33;99863.87;4480396;31;33776;-87
2022/02/18 09:13:09;;;;;;;2.72;1.27;;;;;;;11.58;43.39;99855.34;4467101;31;32224;-88
2022/02/18 09:15:38;;;;;;;3.70;1.35;;;;;;;11.15;42.78;99857.31;4451776;31;32662;-88
2022/02/18 09:18:07;;;;;;;4.32;0.75;;;;;;;11.25;43.92;99858.59;4463135;31;33699;-87
2022/02/18 09:20:35;;;;;;;4.35;1.17;;;;;;;11.68;43.48;99853.97;4483249;31;33034;-88
2022/02/18 09:23:02;;;;;;;4.20;0.70;;;;;;;11.70;42.98;99857.41;4476598;31;33402;-87
2022/02/18 09:25:30;;;;;;;1.27;0.52;;;;;;;11.59;43.17;99863.22;4485580;31;34689;-87
2022/02/18 09:28:00;;;;;;;4.22;0.80;;;;;;;11.87;42.37;99857.50;4478297;31;33419;-88
2022/02/18 09:30:27;;;;;;;7.80;1.35;;;;;;;11.78;42.19;99864.06;4480092;32;33711;-87
2022/02/18 09:33:15;;;;;;;2.62;0.93;;;;;;;12.05;42.17;99864.53;4481094;31;33977;-87
2022/02/18 09:35:43;;;;;;;4.22;1.15;;;;;;;12.08;42.65;99865.34;4469420;31;33082;-88
2022/02/18 09:38:11;;;;;;;4.55;0.82;;;;;;;11.99;42.47;99867.50;4465574;31;32896;-87
2022/02/18 09:40:40;;;;;;;3.00;1.20;;;;;;;11.50;43.28;99864.50;4471804;31;32743;-87
2022/02/18 09:43:08;;;;;;;2.22;0.85;;;;;;;11.60;43.45;99872.00;4494515;31;33764;-87
2022/02/18 09:45:36;;;;;;;3.75;0.65;;;;;;;11.64;43.40;99871.78;4484808;31;33276;-88
2022/02/18 09:48:04;;;;;;;5.47;1.25;;;;;;;12.08;42.86;99865.34;4484591;31;32880;-88
2022/02/18 09:50:32;;;;;;;2.85;1.00;;;;;;;11.97;42.91;99869.38;4473002;31;32704;-86
2022/02/18 09:53:20;;;;;;;1.27;0.62;;;;;;;11.54;43.72;99866.06;4494020;31;33419;-87
2022/02/18 09:55:48;;;;;;;1.95;0.75;;;;;;;12.20;43.69;99875.31;4478847;31;32514;-88
2022/02/18 09:58:21;;;;;;;5.87;0.65;;;;;;;12.02;43.02;99866.50;4478343;31;32903;-88
2022/02/18 10:00:50;;;;;;;2.35;0.55;;;;;;;12.46;42.16;99872.22;4474241;31;33067;-88
2022/02/18 10:03:20;;;;;;;4.65;0.65;;;;;;;12.62;42.15;99877.59;4478643;31;33028;-87
2022/02/18 10:05:48;;;;;;;3.83;0.40;;;;;;;12.11;44.07;99875.78;4480618;31;33809;-87
2022/02/18 10:08:18;;;;;;;3.55;0.65;;;;;;;12.16;43.05;99874.62;4491388;31;32475;-89
2022/02/18 10:11:03;;;;;;;2.70;0.80;;;;;;;12.44;42.88;99874.13;4469977;31;34370;-89
2022/02/18 10:13:43;;;;;;;1.52;0.60;;;;;;;12.45;42.84;99880.25;4479176;31;33958;-89
2022/02/18 10:16:15;;;;;;;4.12;0.90;;;;;;;12.46;43.02;99877.53;4484996;31;35827;-89
2022/02/18 10:18:46;;;;;;;3.12;0.60;;;;;;;12.49;43.75;99874.75;4490931;31;33685;-89
2022/02/18 10:21:16;;;;;;;2.03;0.60;;;;;;;12.73;42.48;99888.53;4480293;31;31774;-89
2022/02/18 10:23:44;;;;;;;6.53;0.80;;;;;;;12.57;42.88;99875.19;4482656;31;33455;-89
2022/02/18 10:26:11;;;;;;;2.25;0.80;;;;;;;12.78;43.43;99861.78;4480401;31;33576;-89
2022/02/18 10:28:40;;;;;;;5.80;1.00;;;;;;;13.07;43.25;99853.16;4471081;31;32255;-89
2022/02/18 10:31:08;;;;;;;6.30;1.12;;;;;;;12.93;43.83;99860.12;4476830;31;36332;-88
2022/02/18 10:33:37;;;;;;;2.17;0.85;;;;;;;13.11;41.59;99853.00;4482016;31;32480;-88
2022/02/18 10:36:06;;;;;;;4.28;1.12;;;;;;;13.20;42.21;99836.62;4477818;31;33614;-89
2022/02/18 10:38:35;;;;;;;2.53;1.08;;;;;;;12.99;43.17;99846.56;4480784;31;33129;-89
2022/02/18 10:41:24;;;;;;;6.12;0.90;;;;;;;13.08;41.43;99835.47;4471371;31;32830;-89
2022/02/18 10:43:52;;;;;;;6.95;1.12;;;;;;;13.34;41.23;99836.75;4487218;31;33288;-88
2022/02/18 10:46:20;;;;;;;7.32;1.08;;;;;;;13.41;40.21;99832.81;4467288;31;33342;-88
2022/02/18 10:48:50;;;;;;;4.22;0.73;;;;;;;13.51;39.87;99818.09;4473914;31;33938;-88
2022/02/18 10:51:21;;;;;;;3.92;0.90;;;;;;;13.76;39.40;99809.63;4467584;31;32847;-89
2022/02/18 10:53:50;;;;;;;5.37;1.80;;;;;;;13.99;39.81;99818.94;4464925;31;32738;-88
2022/02/18 10:56:20;;;;;;;3.83;1.00;;;;;;;14.37;38.58;99813.19;4474884;31;32378;-88
2022/02/18 10:58:51;;;;;;;3.42;1.00;;;;;;;14.35;39.31;99817.75;4467406;31;32896;-88
2022/02/18 11:01:21;;;;;;;2.47;0.90;;;;;;;14.92;37.57;99807.25;4479573;31;34112;-88
2022/02/18 11:04:08;;;;;;;6.30;1.05;;;;;;;15.04;37.42;99805.63;4472555;31;32170;-88
2022/02/18 11:06:37;;;;;;;5.00;0.98;;;;;;;15.01;37.58;99804.03;4467342;31;33187;-88
2022/02/18 11:09:10;;;;;;;4.65;0.75;;;;;;;15.29;37.98;99805.81;4482603;31;34322;-88
2022/02/18 11:11:40;;;;;;;4.20;0.98;;;;;;;15.61;37.46;99793.09;4478980;31;33586;-88
2022/02/18 11:14:12;;;;;;;5.60;1.12;;;;;;;15.65;36.76;99788.47;4469374;31;32962;-88
2022/02/18 11:16:42;;;;;;;4.35;0.90;;;;;;;15.44;37.03;99781.84;4489522;31;33048;-88
2022/02/18 11:19:10;;;;;;;9.45;1.55;;;;;;;14.49;39.12;99782.44;4483224;31;33819;-87
2022/02/18 11:21:58;;;;;;;4.87;0.88;;;;;;;14.68;38.97;99777.72;4467365;31;34281;-87
2022/02/18 11:24:26;;;;;;;4.53;1.42;;;;;;;14.78;38.84;99770.03;4488577;31;32373;-88
2022/02/18 11:26:55;;;;;;;6.60;2.00;;;;;;;15.04;37.97;99755.94;4479764;31;32959;-88
2022/02/18 11:29:23;;;;;;;5.93;1.48;;;;;;;14.87;37.01;99745.53;4479242;31;33492;-87
2022/02/18 11:31:54;;;;;;;3.58;1.27;;;;;;;15.02;37.45;99728.59;4480178;31;32784;-88
2022/02/18 11:34:31;;;;;;;3.42;0.98;;;;;;;15.58;37.42;99723.25;4478209;31;33459;-87
2022/02/18 11:37:14;;;;;;;6.57;1.37;;;;;;;15.66;36.73;99718.31;4487790;31;33601;-88
2022/02/18 11:40:19;;;;;;;4.60;1.08;;;;;;;15.89;36.53;99724.75;4495985;31;34233;-87
2022/02/18 11:43:18;;;;;;;6.45;1.30;;;;;;;15.58;36.54;99721.47;4494902;31;34461;-87
2022/02/18 11:46:01;;;;;;;5.53;1.55;;;;;;;15.25;36.88;99724.50;4478657;31;32818;-88
2022/02/18 11:48:47;;;;;;;5.45;1.12;;;;;;;15.55;37.76;99712.81;4488942;31;33076;-88
2022/02/18 11:51:25;;;;;;;6.00;2.15;;;;;;;15.93;36.06;99704.97;4491861;31;34508;-87